TimePDT,TemperatureF,Dew PointF,Humidity,Sea Level PressureIn,VisibilityMPH,Wind Direction,Wind SpeedMPH,Gust SpeedMPH,PrecipitationIn,Events,Conditions,WindDirDegrees,DateUTC
12:53 AM,34.0,19.9,56,30.12,10.0,NE,3.5,-,N/A,,Clear,50,2014-03-22 07:53:00
1:53 AM,35.1,23.0,61,30.12,10.0,Calm,Calm,-,N/A,,Clear,0,2014-03-22 08:53:00
2:53 AM,30.9,19.9,64,30.14,10.0,NNW,3.5,-,N/A,,Clear,340,2014-03-22 09:53:00
3:53 AM,25.0,18.0,75,30.15,10.0,Calm,Calm,-,N/A,,Clear,0,2014-03-22 10:53:00
4:53 AM,24.1,14.0,65,30.17,10.0,NNE,3.5,-,N/A,,Clear,20,2014-03-22 11:53:00
5:53 AM,26.1,18.0,71,30.17,10.0,Calm,Calm,-,N/A,,Clear,0,2014-03-22 12:53:00
6:53 AM,28.0,16.0,61,30.19,10.0,NNE,3.5,-,N/A,,Clear,20,2014-03-22 13:53:00
7:53 AM,26.1,17.1,69,30.22,10.0,NNE,5.8,-,N/A,,Clear,20,2014-03-22 14:53:00
8:53 AM,35.1,18.0,50,30.21,10.0,ENE,3.5,-,N/A,,Clear,60,2014-03-22 15:53:00
9:53 AM,39.9,18.0,41,30.20,10.0,Calm,Calm,-,N/A,,Clear,0,2014-03-22 16:53:00
10:53 AM,43.0,17.1,35,30.20,10.0,ESE,4.6,-,N/A,,Clear,110,2014-03-22 17:53:00
11:53 AM,45.0,17.1,33,30.19,10.0,Calm,Calm,-,N/A,,Clear,0,2014-03-22 18:53:00
12:53 PM,48.9,18.0,29,30.17,10.0,Calm,Calm,-,N/A,,Clear,0,2014-03-22 19:53:00
1:53 PM,51.1,18.0,27,30.15,10.0,Calm,Calm,-,N/A,,Clear,0,2014-03-22 20:53:00
2:53 PM,55.0,15.1,21,30.13,10.0,Variable,5.8,-,N/A,,Clear,0,2014-03-22 21:53:00
3:53 PM,55.0,10.9,17,30.13,10.0,Calm,Calm,-,N/A,,Clear,0,2014-03-22 22:53:00
4:53 PM,55.9,9.0,15,30.12,10.0,Calm,Calm,-,N/A,,Clear,0,2014-03-22 23:53:00
5:53 PM,55.9,5.0,13,30.11,10.0,West,4.6,-,N/A,,Clear,280,2014-03-23 00:53:00
6:53 PM,54.0,6.1,15,30.10,10.0,NNW,4.6,-,N/A,,Clear,340,2014-03-23 01:53:00
7:53 PM,44.1,14.0,30,30.13,10.0,Calm,Calm,-,N/A,,Clear,0,2014-03-23 02:53:00
8:53 PM,39.9,17.1,40,30.13,10.0,NNE,3.5,-,N/A,,Clear,20,2014-03-23 03:53:00
9:53 PM,35.1,23.0,61,30.14,10.0,Calm,Calm,-,N/A,,Clear,0,2014-03-23 04:53:00
10:53 PM,30.9,18.0,59,30.16,10.0,Calm,Calm,-,N/A,,Clear,0,2014-03-23 05:53:00
11:53 PM,28.0,18.0,66,30.17,10.0,East,3.5,-,N/A,,Clear,100,2014-03-23 06:53:00